sensor_id;sensor_type;location;lat;lon;timestamp;P1;durP1;ratioP1;P2;durP2;ratioP2
68473;SDS011;55461;52.066;5.194;2022-12-29T00:01:34;3.1;;;2.5;;
68473;SDS011;55461;52.066;5.194;2022-12-29T00:04:49;3.4;;;2.5;;
68473;SDS011;55461;52.066;5.194;2022-12-29T00:06:26;3.2;;;2.31;;
68473;SDS011;55461;52.066;5.194;2022-12-29T00:08:03;3.1;;;2.5;;
68473;SDS011;55461;52.066;5.194;2022-12-29T00:11:16;3.5;;;2.5;;
68473;SDS011;55461;52.066;5.194;2022-12-29T00:12:55;3.6;;;2.6;;
68473;SDS011;55461;52.066;5.194;2022-12-29T00:14:32;2.8;;;2.4;;
68473;SDS011;55461;52.066;5.194;2022-12-29T00:16:08;4.8;;;2.5;;
68473;SDS011;55461;52.066;5.194;2022-12-29T00:19:20;4.3;;;2.6;;
68473;SDS011;55461;52.066;5.194;2022-12-29T00:20:56;4.41;;;2.6;;
68473;SDS011;55461;52.066;5.194;2022-12-29T00:22:33;3.0;;;2.21;;
68473;SDS011;55461;52.066;5.194;2022-12-29T00:27:26;2.8;;;2.31;;
68473;SDS011;55461;52.066;5.194;2022-12-29T00:29:03;3.7;;;2.5;;
68473;SDS011;55461;52.066;5.194;2022-12-29T00:30:39;4.0;;;2.31;;
68473;SDS011;55461;52.066;5.194;2022-12-29T00:33:53;2.7;;;2.5;;
68473;SDS011;55461;52.066;5.194;2022-12-29T00:35:30;2.4;;;2.21;;
68473;SDS011;55461;52.066;5.194;2022-12-29T00:37:12;2.9;;;2.4;;
68473;SDS011;55461;52.066;5.194;2022-12-29T00:40:30;3.3;;;2.4;;
68473;SDS011;55461;52.066;5.194;2022-12-29T00:42:07;3.4;;;2.5;;
68473;SDS011;55461;52.066;5.194;2022-12-29T00:43:45;2.8;;;2.21;;
68473;SDS011;55461;52.066;5.194;2022-12-29T00:45:21;2.31;;;2.1;;
68473;SDS011;55461;52.066;5.194;2022-12-29T00:48:33;3.1;;;2.21;;
68473;SDS011;55461;52.066;5.194;2022-12-29T00:50:10;2.1;;;1.9;;
68473;SDS011;55461;52.066;5.194;2022-12-29T00:51:46;2.21;;;1.9;;
68473;SDS011;55461;52.066;5.194;2022-12-29T00:54:59;2.0;;;1.8;;
68473;SDS011;55461;52.066;5.194;2022-12-29T00:56:35;2.8;;;2.0;;
68473;SDS011;55461;52.066;5.194;2022-12-29T00:58:13;2.9;;;2.1;;
68473;SDS011;55461;52.066;5.194;2022-12-29T01:01:26;3.7;;;2.1;;
68473;SDS011;55461;52.066;5.194;2022-12-29T01:03:02;2.5;;;2.1;;
68473;SDS011;55461;52.066;5.194;2022-12-29T01:04:38;2.9;;;1.8;;
68473;SDS011;55461;52.066;5.194;2022-12-29T01:06:14;2.8;;;1.8;;
68473;SDS011;55461;52.066;5.194;2022-12-29T01:09:27;2.31;;;1.7;;
68473;SDS011;55461;52.066;5.194;2022-12-29T01:11:04;3.0;;;1.8;;
68473;SDS011;55461;52.066;5.194;2022-12-29T01:12:42;4.1;;;2.31;;
68473;SDS011;55461;52.066;5.194;2022-12-29T01:15:55;3.1;;;1.8;;
68473;SDS011;55461;52.066;5.194;2022-12-29T01:17:33;2.8;;;1.8;;
68473;SDS011;55461;52.066;5.194;2022-12-29T01:19:10;2.6;;;2.0;;
68473;SDS011;55461;52.066;5.194;2022-12-29T01:22:24;2.4;;;1.8;;
68473;SDS011;55461;52.066;5.194;2022-12-29T01:24:00;3.0;;;2.0;;
68473;SDS011;55461;52.066;5.194;2022-12-29T01:25:37;3.0;;;2.0;;
68473;SDS011;55461;52.066;5.194;2022-12-29T01:27:14;2.8;;;1.7;;
68473;SDS011;55461;52.066;5.194;2022-12-29T01:30:26;2.31;;;1.8;;
68473;SDS011;55461;52.066;5.194;2022-12-29T01:32:03;2.31;;;1.6;;
68473;SDS011;55461;52.066;5.194;2022-12-29T01:33:40;2.0;;;1.6;;
68473;SDS011;55461;52.066;5.194;2022-12-29T01:36:55;2.21;;;1.7;;
68473;SDS011;55461;52.066;5.194;2022-12-29T01:38:31;2.21;;;1.7;;
68473;SDS011;55461;52.066;5.194;2022-12-29T01:40:09;2.21;;;1.7;;
68473;SDS011;55461;52.066;5.194;2022-12-29T01:41:46;3.4;;;1.8;;
68473;SDS011;55461;52.066;5.194;2022-12-29T01:45:16;2.21;;;1.6;;
68473;SDS011;55461;52.066;5.194;2022-12-29T01:46:53;2.0;;;1.7;;
68473;SDS011;55461;52.066;5.194;2022-12-29T01:48:31;2.31;;;1.7;;
68473;SDS011;55461;52.066;5.194;2022-12-29T01:50:08;2.0;;;1.8;;
68473;SDS011;55461;52.066;5.194;2022-12-29T01:53:34;2.5;;;2.0;;
68473;SDS011;55461;52.066;5.194;2022-12-29T01:55:12;1.7;;;1.6;;
68473;SDS011;55461;52.066;5.194;2022-12-29T01:56:49;2.7;;;1.9;;
68473;SDS011;55461;52.066;5.194;2022-12-29T01:58:28;2.4;;;1.6;;
68473;SDS011;55461;52.066;5.194;2022-12-29T02:01:49;2.0;;;1.8;;
68473;SDS011;55461;52.066;5.194;2022-12-29T02:03:26;2.7;;;2.0;;
68473;SDS011;55461;52.066;5.194;2022-12-29T02:05:07;2.6;;;1.8;;
68473;SDS011;55461;52.066;5.194;2022-12-29T02:06:51;2.6;;;1.8;;
68473;SDS011;55461;52.066;5.194;2022-12-29T02:10:08;2.31;;;1.7;;
68473;SDS011;55461;52.066;5.194;2022-12-29T02:11:44;2.31;;;1.7;;
68473;SDS011;55461;52.066;5.194;2022-12-29T02:15:00;2.5;;;1.7;;
68473;SDS011;55461;52.066;5.194;2022-12-29T02:16:43;2.9;;;1.9;;
68473;SDS011;55461;52.066;5.194;2022-12-29T02:18:39;2.9;;;1.8;;
68473;SDS011;55461;52.066;5.194;2022-12-29T02:24:11;2.7;;;1.6;;
68473;SDS011;55461;52.066;5.194;2022-12-29T02:27:12;2.4;;;1.6;;
68473;SDS011;55461;52.066;5.194;2022-12-29T02:30:51;2.6;;;1.2;;
68473;SDS011;55461;52.066;5.194;2022-12-29T02:32:42;2.8;;;1.2;;
68473;SDS011;55461;52.066;5.194;2022-12-29T02:34:29;3.4;;;1.2;;
68473;SDS011;55461;52.066;5.194;2022-12-29T02:36:21;3.6;;;1.3;;
68473;SDS011;55461;52.066;5.194;2022-12-29T02:39:56;3.6;;;1.3;;
68473;SDS011;55461;52.066;5.194;2022-12-29T02:41:43;3.4;;;1.11;;
68473;SDS011;55461;52.066;5.194;2022-12-29T02:43:41;4.91;;;1.2;;
68473;SDS011;55461;52.066;5.194;2022-12-29T02:45:31;2.9;;;1.2;;
68473;SDS011;55461;52.066;5.194;2022-12-29T02:47:15;3.1;;;1.11;;
68473;SDS011;55461;52.066;5.194;2022-12-29T02:49:01;3.0;;;1.0;;
68473;SDS011;55461;52.066;5.194;2022-12-29T02:50:48;3.5;;;1.0;;
68473;SDS011;55461;52.066;5.194;2022-12-29T02:54:16;2.7;;;1.11;;
68473;SDS011;55461;52.066;5.194;2022-12-29T02:55:53;1.4;;;1.0;;
68473;SDS011;55461;52.066;5.194;2022-12-29T02:57:31;2.9;;;0.9;;
68473;SDS011;55461;52.066;5.194;2022-12-29T02:59:09;3.2;;;1.0;;
68473;SDS011;55461;52.066;5.194;2022-12-29T03:02:52;3.7;;;1.0;;
68473;SDS011;55461;52.066;5.194;2022-12-29T03:04:54;2.5;;;1.0;;
68473;SDS011;55461;52.066;5.194;2022-12-29T03:06:54;2.6;;;1.0;;
68473;SDS011;55461;52.066;5.194;2022-12-29T03:08:42;2.31;;;1.0;;
68473;SDS011;55461;52.066;5.194;2022-12-29T03:10:29;2.0;;;0.9;;
68473;SDS011;55461;52.066;5.194;2022-12-29T03:12:18;1.7;;;0.9;;
68473;SDS011;55461;52.066;5.194;2022-12-29T03:14:07;2.6;;;0.9;;
68473;SDS011;55461;52.066;5.194;2022-12-29T03:15:55;1.7;;;1.0;;
68473;SDS011;55461;52.066;5.194;2022-12-29T03:19:26;3.2;;;1.11;;
68473;SDS011;55461;52.066;5.194;2022-12-29T03:21:08;1.8;;;0.9;;
68473;SDS011;55461;52.066;5.194;2022-12-29T03:22:50;1.9;;;0.9;;
68473;SDS011;55461;52.066;5.194;2022-12-29T03:26:26;2.7;;;1.0;;
68473;SDS011;55461;52.066;5.194;2022-12-29T03:29:46;2.7;;;0.9;;
68473;SDS011;55461;52.066;5.194;2022-12-29T03:31:26;2.0;;;1.0;;
68473;SDS011;55461;52.066;5.194;2022-12-29T03:33:04;3.9;;;1.4;;
68473;SDS011;55461;52.066;5.194;2022-12-29T03:34:45;2.21;;;0.8;;
68473;SDS011;55461;52.066;5.194;2022-12-29T03:38:13;3.0;;;0.9;;
68473;SDS011;55461;52.066;5.194;2022-12-29T03:39:55;1.7;;;0.9;;
68473;SDS011;55461;52.066;5.194;2022-12-29T03:41:32;3.2;;;0.9;;
68473;SDS011;55461;52.066;5.194;2022-12-29T03:43:10;1.9;;;0.9;;
68473;SDS011;55461;52.066;5.194;2022-12-29T03:46:30;2.7;;;1.0;;
68473;SDS011;55461;52.066;5.194;2022-12-29T03:48:06;2.6;;;1.11;;
68473;SDS011;55461;52.066;5.194;2022-12-29T03:49:43;3.0;;;0.9;;
68473;SDS011;55461;52.066;5.194;2022-12-29T03:52:59;2.0;;;0.8;;
68473;SDS011;55461;52.066;5.194;2022-12-29T03:54:35;2.0;;;1.0;;
68473;SDS011;55461;52.066;5.194;2022-12-29T03:56:11;3.5;;;1.11;;
68473;SDS011;55461;52.066;5.194;2022-12-29T04:01:00;3.7;;;1.2;;
68473;SDS011;55461;52.066;5.194;2022-12-29T04:02:36;2.6;;;1.3;;
68473;SDS011;55461;52.066;5.194;2022-12-29T04:04:12;4.2;;;1.5;;
68473;SDS011;55461;52.066;5.194;2022-12-29T04:07:25;4.0;;;1.5;;
68473;SDS011;55461;52.066;5.194;2022-12-29T04:09:02;4.1;;;1.6;;
68473;SDS011;55461;52.066;5.194;2022-12-29T04:10:39;5.4;;;1.5;;
68473;SDS011;55461;52.066;5.194;2022-12-29T04:13:53;3.7;;;1.5;;
68473;SDS011;55461;52.066;5.194;2022-12-29T04:15:29;4.8;;;1.4;;
68473;SDS011;55461;52.066;5.194;2022-12-29T04:17:05;3.9;;;1.7;;
68473;SDS011;55461;52.066;5.194;2022-12-29T04:18:42;4.1;;;1.4;;
68473;SDS011;55461;52.066;5.194;2022-12-29T04:21:55;4.91;;;1.6;;
68473;SDS011;55461;52.066;5.194;2022-12-29T04:25:11;5.0;;;1.4;;
68473;SDS011;55461;52.066;5.194;2022-12-29T04:28:23;5.9;;;1.7;;
68473;SDS011;55461;52.066;5.194;2022-12-29T04:30:00;7.1;;;1.5;;
68473;SDS011;55461;52.066;5.194;2022-12-29T04:31:37;6.4;;;1.4;;
68473;SDS011;55461;52.066;5.194;2022-12-29T04:34:50;8.2;;;1.7;;
68473;SDS011;55461;52.066;5.194;2022-12-29T04:36:26;5.3;;;1.4;;
68473;SDS011;55461;52.066;5.194;2022-12-29T04:38:02;8.2;;;1.5;;
68473;SDS011;55461;52.066;5.194;2022-12-29T04:39:39;7.3;;;1.8;;
68473;SDS011;55461;52.066;5.194;2022-12-29T04:42:52;6.9;;;1.5;;
68473;SDS011;55461;52.066;5.194;2022-12-29T04:44:28;5.4;;;1.4;;
68473;SDS011;55461;52.066;5.194;2022-12-29T04:46:04;5.11;;;1.4;;
68473;SDS011;55461;52.066;5.194;2022-12-29T04:49:17;5.8;;;1.7;;
68473;SDS011;55461;52.066;5.194;2022-12-29T04:50:54;6.0;;;1.7;;
68473;SDS011;55461;52.066;5.194;2022-12-29T04:52:30;8.1;;;1.7;;
68473;SDS011;55461;52.066;5.194;2022-12-29T04:55:47;6.9;;;1.6;;
68473;SDS011;55461;52.066;5.194;2022-12-29T04:57:24;8.81;;;1.6;;
68473;SDS011;55461;52.066;5.194;2022-12-29T04:59:02;6.7;;;1.6;;
68473;SDS011;55461;52.066;5.194;2022-12-29T05:00:38;11.7;;;2.1;;
68473;SDS011;55461;52.066;5.194;2022-12-29T05:03:51;5.6;;;1.6;;
68473;SDS011;55461;52.066;5.194;2022-12-29T05:05:27;7.1;;;1.7;;
68473;SDS011;55461;52.066;5.194;2022-12-29T05:07:05;6.7;;;1.7;;
68473;SDS011;55461;52.066;5.194;2022-12-29T05:10:18;9.0;;;1.8;;
68473;SDS011;55461;52.066;5.194;2022-12-29T05:11:54;7.5;;;1.6;;
68473;SDS011;55461;52.066;5.194;2022-12-29T05:13:30;8.0;;;1.8;;
68473;SDS011;55461;52.066;5.194;2022-12-29T05:15:07;8.2;;;1.7;;
68473;SDS011;55461;52.066;5.194;2022-12-29T05:18:22;9.9;;;1.8;;
68473;SDS011;55461;52.066;5.194;2022-12-29T05:19:58;7.9;;;1.8;;
68473;SDS011;55461;52.066;5.194;2022-12-29T05:21:35;6.9;;;2.1;;
68473;SDS011;55461;52.066;5.194;2022-12-29T05:24:49;12.4;;;2.1;;
68473;SDS011;55461;52.066;5.194;2022-12-29T05:26:25;9.31;;;1.6;;
68473;SDS011;55461;52.066;5.194;2022-12-29T05:28:01;11.7;;;2.4;;
68473;SDS011;55461;52.066;5.194;2022-12-29T05:31:15;9.31;;;1.9;;
68473;SDS011;55461;52.066;5.194;2022-12-29T05:32:51;7.7;;;1.7;;
68473;SDS011;55461;52.066;5.194;2022-12-29T05:34:28;6.4;;;1.8;;
68473;SDS011;55461;52.066;5.194;2022-12-29T05:36:06;9.6;;;1.9;;
68473;SDS011;55461;52.066;5.194;2022-12-29T05:39:21;9.6;;;1.9;;
68473;SDS011;55461;52.066;5.194;2022-12-29T05:40:57;9.21;;;1.8;;
68473;SDS011;55461;52.066;5.194;2022-12-29T05:42:33;10.5;;;1.9;;
68473;SDS011;55461;52.066;5.194;2022-12-29T05:45:48;8.31;;;1.9;;
68473;SDS011;55461;52.066;5.194;2022-12-29T05:49:01;10.5;;;1.9;;
68473;SDS011;55461;52.066;5.194;2022-12-29T05:52:13;8.31;;;2.1;;
68473;SDS011;55461;52.066;5.194;2022-12-29T05:53:50;11.1;;;2.5;;
68473;SDS011;55461;52.066;5.194;2022-12-29T05:55:27;8.31;;;1.9;;
68473;SDS011;55461;52.066;5.194;2022-12-29T05:57:03;7.8;;;1.8;;
68473;SDS011;55461;52.066;5.194;2022-12-29T06:00:16;10.9;;;2.4;;
68473;SDS011;55461;52.066;5.194;2022-12-29T06:01:52;9.21;;;2.0;;
68473;SDS011;55461;52.066;5.194;2022-12-29T06:03:28;8.81;;;1.9;;
68473;SDS011;55461;52.066;5.194;2022-12-29T06:06:42;10.1;;;1.9;;
68473;SDS011;55461;52.066;5.194;2022-12-29T06:08:19;9.71;;;2.0;;
68473;SDS011;55461;52.066;5.194;2022-12-29T06:09:55;10.5;;;2.4;;
68473;SDS011;55461;52.066;5.194;2022-12-29T06:13:09;9.5;;;2.0;;
68473;SDS011;55461;52.066;5.194;2022-12-29T06:14:45;10.3;;;2.1;;
68473;SDS011;55461;52.066;5.194;2022-12-29T06:16:22;10.8;;;2.31;;
68473;SDS011;55461;52.066;5.194;2022-12-29T06:17:59;12.7;;;2.1;;
68473;SDS011;55461;52.066;5.194;2022-12-29T06:21:12;10.21;;;2.0;;
68473;SDS011;55461;52.066;5.194;2022-12-29T06:22:48;8.9;;;2.1;;
68473;SDS011;55461;52.066;5.194;2022-12-29T06:24:25;7.6;;;2.21;;
68473;SDS011;55461;52.066;5.194;2022-12-29T06:27:40;10.4;;;2.1;;
68473;SDS011;55461;52.066;5.194;2022-12-29T06:29:17;11.3;;;2.4;;
68473;SDS011;55461;52.066;5.194;2022-12-29T06:30:53;11.6;;;2.31;;
68473;SDS011;55461;52.066;5.194;2022-12-29T06:34:07;10.9;;;2.7;;
68473;SDS011;55461;52.066;5.194;2022-12-29T06:35:43;10.4;;;2.0;;
68473;SDS011;55461;52.066;5.194;2022-12-29T06:37:20;10.7;;;2.21;;
68473;SDS011;55461;52.066;5.194;2022-12-29T06:38:57;11.3;;;2.5;;
68473;SDS011;55461;52.066;5.194;2022-12-29T06:42:10;11.9;;;2.21;;
68473;SDS011;55461;52.066;5.194;2022-12-29T06:43:46;9.1;;;2.31;;
68473;SDS011;55461;52.066;5.194;2022-12-29T06:45:22;8.81;;;2.31;;
68473;SDS011;55461;52.066;5.194;2022-12-29T06:48:37;10.9;;;2.31;;
68473;SDS011;55461;52.066;5.194;2022-12-29T06:50:13;10.7;;;2.1;;
68473;SDS011;55461;52.066;5.194;2022-12-29T06:51:50;10.7;;;2.1;;
68473;SDS011;55461;52.066;5.194;2022-12-29T06:53:28;10.1;;;2.21;;
68473;SDS011;55461;52.066;5.194;2022-12-29T06:56:42;10.6;;;2.4;;
68473;SDS011;55461;52.066;5.194;2022-12-29T06:58:20;9.4;;;2.21;;
68473;SDS011;55461;52.066;5.194;2022-12-29T06:59:56;12.3;;;2.6;;
68473;SDS011;55461;52.066;5.194;2022-12-29T07:03:10;11.8;;;2.6;;
68473;SDS011;55461;52.066;5.194;2022-12-29T07:04:46;11.5;;;2.31;;
68473;SDS011;55461;52.066;5.194;2022-12-29T07:06:22;11.8;;;2.1;;
68473;SDS011;55461;52.066;5.194;2022-12-29T07:09:36;8.81;;;2.31;;
68473;SDS011;55461;52.066;5.194;2022-12-29T07:11:12;8.71;;;2.1;;
68473;SDS011;55461;52.066;5.194;2022-12-29T07:12:49;10.3;;;2.21;;
68473;SDS011;55461;52.066;5.194;2022-12-29T07:14:26;7.9;;;1.8;;
68473;SDS011;55461;52.066;5.194;2022-12-29T07:17:42;9.21;;;1.9;;
68473;SDS011;55461;52.066;5.194;2022-12-29T07:19:19;9.1;;;1.9;;
68473;SDS011;55461;52.066;5.194;2022-12-29T07:20:55;9.31;;;1.9;;
68473;SDS011;55461;52.066;5.194;2022-12-29T07:24:08;9.81;;;1.9;;
68473;SDS011;55461;52.066;5.194;2022-12-29T07:25:45;7.9;;;1.8;;
68473;SDS011;55461;52.066;5.194;2022-12-29T07:27:22;8.1;;;1.7;;
68473;SDS011;55461;52.066;5.194;2022-12-29T07:30:36;10.0;;;1.8;;
68473;SDS011;55461;52.066;5.194;2022-12-29T07:32:14;10.1;;;2.0;;
68473;SDS011;55461;52.066;5.194;2022-12-29T07:33:51;7.4;;;2.0;;
68473;SDS011;55461;52.066;5.194;2022-12-29T07:35:28;7.5;;;2.0;;
68473;SDS011;55461;52.066;5.194;2022-12-29T07:38:41;9.31;;;1.9;;
68473;SDS011;55461;52.066;5.194;2022-12-29T07:40:19;9.81;;;2.31;;
68473;SDS011;55461;52.066;5.194;2022-12-29T07:41:56;11.4;;;2.4;;
68473;SDS011;55461;52.066;5.194;2022-12-29T07:45:10;9.5;;;2.4;;
68473;SDS011;55461;52.066;5.194;2022-12-29T07:46:47;10.8;;;2.4;;
68473;SDS011;55461;52.066;5.194;2022-12-29T07:48:23;9.71;;;2.4;;
68473;SDS011;55461;52.066;5.194;2022-12-29T07:49:59;10.3;;;2.31;;
68473;SDS011;55461;52.066;5.194;2022-12-29T07:53:14;9.71;;;2.4;;
68473;SDS011;55461;52.066;5.194;2022-12-29T07:54:51;10.8;;;2.4;;
68473;SDS011;55461;52.066;5.194;2022-12-29T07:56:27;11.9;;;2.5;;
68473;SDS011;55461;52.066;5.194;2022-12-29T07:59:40;8.1;;;2.31;;
68473;SDS011;55461;52.066;5.194;2022-12-29T08:01:16;10.3;;;2.31;;
68473;SDS011;55461;52.066;5.194;2022-12-29T08:02:53;14.7;;;2.6;;
68473;SDS011;55461;52.066;5.194;2022-12-29T08:06:05;11.1;;;2.21;;
68473;SDS011;55461;52.066;5.194;2022-12-29T08:07:44;10.7;;;2.31;;
68473;SDS011;55461;52.066;5.194;2022-12-29T08:09:22;13.7;;;2.5;;
68473;SDS011;55461;52.066;5.194;2022-12-29T08:10:58;9.6;;;2.21;;
68473;SDS011;55461;52.066;5.194;2022-12-29T08:14:10;11.2;;;2.5;;
68473;SDS011;55461;52.066;5.194;2022-12-29T08:15:47;12.3;;;2.8;;
68473;SDS011;55461;52.066;5.194;2022-12-29T08:17:23;12.1;;;2.4;;
68473;SDS011;55461;52.066;5.194;2022-12-29T08:20:36;10.3;;;2.21;;
68473;SDS011;55461;52.066;5.194;2022-12-29T08:22:12;12.8;;;2.31;;
68473;SDS011;55461;52.066;5.194;2022-12-29T08:23:49;10.6;;;2.0;;
68473;SDS011;55461;52.066;5.194;2022-12-29T08:27:01;11.8;;;2.6;;
68473;SDS011;55461;52.066;5.194;2022-12-29T08:28:38;10.7;;;2.5;;
68473;SDS011;55461;52.066;5.194;2022-12-29T08:30:14;9.71;;;2.21;;
68473;SDS011;55461;52.066;5.194;2022-12-29T08:31:51;12.0;;;2.31;;
68473;SDS011;55461;52.066;5.194;2022-12-29T08:35:05;13.2;;;2.7;;
68473;SDS011;55461;52.066;5.194;2022-12-29T08:36:42;10.7;;;2.1;;
68473;SDS011;55461;52.066;5.194;2022-12-29T08:38:18;12.1;;;2.4;;
68473;SDS011;55461;52.066;5.194;2022-12-29T08:41:31;10.7;;;2.7;;
68473;SDS011;55461;52.066;5.194;2022-12-29T08:43:08;12.1;;;2.31;;
68473;SDS011;55461;52.066;5.194;2022-12-29T08:44:44;10.4;;;2.5;;
68473;SDS011;55461;52.066;5.194;2022-12-29T08:47:57;13.5;;;3.3;;
68473;SDS011;55461;52.066;5.194;2022-12-29T08:49:33;11.8;;;2.8;;
68473;SDS011;55461;52.066;5.194;2022-12-29T08:51:10;10.7;;;2.31;;
68473;SDS011;55461;52.066;5.194;2022-12-29T08:52:46;10.3;;;2.5;;
68473;SDS011;55461;52.066;5.194;2022-12-29T08:55:58;11.5;;;2.6;;
68473;SDS011;55461;52.066;5.194;2022-12-29T08:57:36;14.2;;;2.31;;
68473;SDS011;55461;52.066;5.194;2022-12-29T08:59:12;12.3;;;2.31;;
68473;SDS011;55461;52.066;5.194;2022-12-29T09:02:28;9.81;;;2.31;;
68473;SDS011;55461;52.066;5.194;2022-12-29T09:04:04;13.8;;;2.7;;
68473;SDS011;55461;52.066;5.194;2022-12-29T09:05:40;11.3;;;2.21;;
68473;SDS011;55461;52.066;5.194;2022-12-29T09:08:53;10.21;;;2.4;;
68473;SDS011;55461;52.066;5.194;2022-12-29T09:10:30;12.8;;;2.9;;
68473;SDS011;55461;52.066;5.194;2022-12-29T09:12:07;10.9;;;2.31;;
68473;SDS011;55461;52.066;5.194;2022-12-29T09:13:43;10.7;;;2.6;;
68473;SDS011;55461;52.066;5.194;2022-12-29T09:16:56;8.9;;;2.21;;
68473;SDS011;55461;52.066;5.194;2022-12-29T09:18:33;11.4;;;2.8;;
68473;SDS011;55461;52.066;5.194;2022-12-29T09:20:10;12.0;;;2.5;;
68473;SDS011;55461;52.066;5.194;2022-12-29T09:23:23;11.2;;;2.4;;
68473;SDS011;55461;52.066;5.194;2022-12-29T09:26:36;9.31;;;2.4;;
68473;SDS011;55461;52.066;5.194;2022-12-29T09:29:49;8.2;;;2.0;;
68473;SDS011;55461;52.066;5.194;2022-12-29T09:31:25;9.81;;;2.31;;
68473;SDS011;55461;52.066;5.194;2022-12-29T09:33:02;12.8;;;2.4;;
68473;SDS011;55461;52.066;5.194;2022-12-29T09:34:39;9.5;;;2.31;;
68473;SDS011;55461;52.066;5.194;2022-12-29T09:37:53;7.8;;;2.1;;
68473;SDS011;55461;52.066;5.194;2022-12-29T09:39:29;7.8;;;2.1;;
68473;SDS011;55461;52.066;5.194;2022-12-29T09:41:06;9.21;;;2.31;;
68473;SDS011;55461;52.066;5.194;2022-12-29T09:44:47;7.1;;;2.1;;
68473;SDS011;55461;52.066;5.194;2022-12-29T09:46:37;8.81;;;2.4;;
68473;SDS011;55461;52.066;5.194;2022-12-29T09:48:17;10.5;;;2.5;;
68473;SDS011;55461;52.066;5.194;2022-12-29T09:50:01;12.6;;;2.21;;
68473;SDS011;55461;52.066;5.194;2022-12-29T09:51:42;8.4;;;1.8;;
68473;SDS011;55461;52.066;5.194;2022-12-29T09:53:24;5.8;;;2.0;;
68473;SDS011;55461;52.066;5.194;2022-12-29T09:58:30;8.6;;;2.1;;
68473;SDS011;55461;52.066;5.194;2022-12-29T10:03:38;11.8;;;2.4;;
68473;SDS011;55461;52.066;5.194;2022-12-29T10:05:26;9.4;;;2.5;;
68473;SDS011;55461;52.066;5.194;2022-12-29T10:07:13;9.6;;;2.31;;
68473;SDS011;55461;52.066;5.194;2022-12-29T10:09:01;9.6;;;2.21;;
68473;SDS011;55461;52.066;5.194;2022-12-29T10:10:45;6.9;;;2.1;;
68473;SDS011;55461;52.066;5.194;2022-12-29T10:12:31;7.5;;;1.9;;
68473;SDS011;55461;52.066;5.194;2022-12-29T10:14:29;9.21;;;2.0;;
68473;SDS011;55461;52.066;5.194;2022-12-29T10:18:03;7.4;;;2.21;;
68473;SDS011;55461;52.066;5.194;2022-12-29T10:19:59;9.21;;;1.8;;
68473;SDS011;55461;52.066;5.194;2022-12-29T10:21:57;8.4;;;1.9;;
68473;SDS011;55461;52.066;5.194;2022-12-29T10:23:46;6.5;;;1.7;;
68473;SDS011;55461;52.066;5.194;2022-12-29T10:25:29;6.3;;;1.7;;
68473;SDS011;55461;52.066;5.194;2022-12-29T10:27:11;8.5;;;2.21;;
68473;SDS011;55461;52.066;5.194;2022-12-29T10:30:31;8.0;;;1.7;;
68473;SDS011;55461;52.066;5.194;2022-12-29T10:32:13;8.9;;;1.8;;
68473;SDS011;55461;52.066;5.194;2022-12-29T10:34:07;8.71;;;2.21;;
68473;SDS011;55461;52.066;5.194;2022-12-29T10:37:32;6.2;;;1.7;;
68473;SDS011;55461;52.066;5.194;2022-12-29T10:41:06;10.21;;;2.31;;
68473;SDS011;55461;52.066;5.194;2022-12-29T10:42:51;7.0;;;2.4;;
68473;SDS011;55461;52.066;5.194;2022-12-29T10:44:30;11.5;;;2.9;;
68473;SDS011;55461;52.066;5.194;2022-12-29T10:46:08;11.9;;;2.9;;
68473;SDS011;55461;52.066;5.194;2022-12-29T10:47:53;12.3;;;3.2;;
68473;SDS011;55461;52.066;5.194;2022-12-29T10:51:20;12.4;;;3.1;;
68473;SDS011;55461;52.066;5.194;2022-12-29T10:53:02;14.2;;;3.4;;
68473;SDS011;55461;52.066;5.194;2022-12-29T10:54:42;15.2;;;3.7;;
68473;SDS011;55461;52.066;5.194;2022-12-29T10:56:28;12.8;;;3.1;;
68473;SDS011;55461;52.066;5.194;2022-12-29T10:59:50;14.3;;;3.5;;
68473;SDS011;55461;52.066;5.194;2022-12-29T11:01:29;14.2;;;3.4;;
68473;SDS011;55461;52.066;5.194;2022-12-29T11:03:21;14.4;;;3.4;;
68473;SDS011;55461;52.066;5.194;2022-12-29T11:05:23;14.7;;;3.6;;
68473;SDS011;55461;52.066;5.194;2022-12-29T11:07:08;16.11;;;4.0;;
68473;SDS011;55461;52.066;5.194;2022-12-29T11:08:47;16.0;;;4.1;;
68473;SDS011;55461;52.066;5.194;2022-12-29T11:12:18;18.61;;;4.0;;
68473;SDS011;55461;52.066;5.194;2022-12-29T11:13:57;18.2;;;3.9;;
68473;SDS011;55461;52.066;5.194;2022-12-29T11:15:38;16.4;;;3.7;;
68473;SDS011;55461;52.066;5.194;2022-12-29T11:17:17;14.0;;;3.2;;
68473;SDS011;55461;52.066;5.194;2022-12-29T11:20:31;16.7;;;4.1;;
68473;SDS011;55461;52.066;5.194;2022-12-29T11:22:14;14.8;;;3.6;;
68473;SDS011;55461;52.066;5.194;2022-12-29T11:25:34;15.6;;;4.2;;
68473;SDS011;55461;52.066;5.194;2022-12-29T11:30:23;13.9;;;3.7;;
68473;SDS011;55461;52.066;5.194;2022-12-29T11:32:10;16.9;;;4.2;;
68473;SDS011;55461;52.066;5.194;2022-12-29T11:33:48;14.6;;;3.4;;
68473;SDS011;55461;52.066;5.194;2022-12-29T11:37:13;16.2;;;3.7;;
68473;SDS011;55461;52.066;5.194;2022-12-29T11:38:53;17.3;;;4.3;;
68473;SDS011;55461;52.066;5.194;2022-12-29T11:40:32;15.0;;;3.6;;
68473;SDS011;55461;52.066;5.194;2022-12-29T11:42:16;16.8;;;3.5;;
68473;SDS011;55461;52.066;5.194;2022-12-29T11:45:35;14.8;;;3.8;;
68473;SDS011;55461;52.066;5.194;2022-12-29T11:47:19;20.41;;;4.0;;
68473;SDS011;55461;52.066;5.194;2022-12-29T11:49:00;14.7;;;3.8;;
68473;SDS011;55461;52.066;5.194;2022-12-29T11:50:39;19.2;;;4.0;;
68473;SDS011;55461;52.066;5.194;2022-12-29T11:53:59;16.8;;;4.0;;
68473;SDS011;55461;52.066;5.194;2022-12-29T11:55:39;20.2;;;4.0;;
68473;SDS011;55461;52.066;5.194;2022-12-29T11:57:16;14.5;;;3.9;;
68473;SDS011;55461;52.066;5.194;2022-12-29T11:58:56;16.4;;;4.0;;
68473;SDS011;55461;52.066;5.194;2022-12-29T12:04:54;17.7;;;4.41;;
68473;SDS011;55461;52.066;5.194;2022-12-29T12:06:41;18.2;;;4.5;;
68473;SDS011;55461;52.066;5.194;2022-12-29T12:08:34;18.2;;;3.7;;
68473;SDS011;55461;52.066;5.194;2022-12-29T12:10:16;17.8;;;3.9;;
68473;SDS011;55461;52.066;5.194;2022-12-29T12:11:57;15.7;;;3.6;;
68473;SDS011;55461;52.066;5.194;2022-12-29T12:13:39;21.1;;;4.61;;
68473;SDS011;55461;52.066;5.194;2022-12-29T12:17:09;16.9;;;3.8;;
68473;SDS011;55461;52.066;5.194;2022-12-29T12:18:51;13.9;;;3.7;;
68473;SDS011;55461;52.066;5.194;2022-12-29T12:20:36;18.41;;;4.1;;
68473;SDS011;55461;52.066;5.194;2022-12-29T12:22:19;24.2;;;4.7;;
68473;SDS011;55461;52.066;5.194;2022-12-29T12:24:11;24.2;;;4.7;;
68473;SDS011;55461;52.066;5.194;2022-12-29T12:26:14;18.0;;;4.0;;
68473;SDS011;55461;52.066;5.194;2022-12-29T12:29:38;18.61;;;4.5;;
68473;SDS011;55461;52.066;5.194;2022-12-29T12:31:26;19.3;;;4.2;;
68473;SDS011;55461;52.066;5.194;2022-12-29T12:33:22;17.61;;;3.8;;
68473;SDS011;55461;52.066;5.194;2022-12-29T12:35:07;16.0;;;4.2;;
68473;SDS011;55461;52.066;5.194;2022-12-29T12:38:43;19.2;;;4.1;;
68473;SDS011;55461;52.066;5.194;2022-12-29T12:42:24;13.7;;;3.7;;
68473;SDS011;55461;52.066;5.194;2022-12-29T12:44:12;15.6;;;3.2;;
68473;SDS011;55461;52.066;5.194;2022-12-29T12:46:02;18.7;;;4.0;;
68473;SDS011;55461;52.066;5.194;2022-12-29T12:47:57;16.2;;;3.7;;
68473;SDS011;55461;52.066;5.194;2022-12-29T12:49:59;12.5;;;3.1;;
68473;SDS011;55461;52.066;5.194;2022-12-29T12:52:14;17.41;;;4.0;;
68473;SDS011;55461;52.066;5.194;2022-12-29T12:54:08;13.2;;;3.5;;
68473;SDS011;55461;52.066;5.194;2022-12-29T12:56:26;14.7;;;3.8;;
68473;SDS011;55461;52.066;5.194;2022-12-29T12:58:52;15.2;;;3.6;;
68473;SDS011;55461;52.066;5.194;2022-12-29T13:00:37;14.4;;;3.5;;
68473;SDS011;55461;52.066;5.194;2022-12-29T13:02:29;14.5;;;3.3;;
68473;SDS011;55461;52.066;5.194;2022-12-29T13:04:22;15.3;;;3.5;;
68473;SDS011;55461;52.066;5.194;2022-12-29T13:06:41;18.7;;;3.3;;
68473;SDS011;55461;52.066;5.194;2022-12-29T13:08:38;14.6;;;3.4;;
68473;SDS011;55461;52.066;5.194;2022-12-29T13:10:40;14.0;;;3.3;;
68473;SDS011;55461;52.066;5.194;2022-12-29T13:12:21;14.5;;;3.5;;
68473;SDS011;55461;52.066;5.194;2022-12-29T13:16:05;15.2;;;3.5;;
68473;SDS011;55461;52.066;5.194;2022-12-29T13:17:53;15.3;;;3.5;;
68473;SDS011;55461;52.066;5.194;2022-12-29T13:19:40;13.5;;;3.4;;
68473;SDS011;55461;52.066;5.194;2022-12-29T13:21:26;14.8;;;3.8;;
68473;SDS011;55461;52.066;5.194;2022-12-29T13:23:20;14.4;;;3.3;;
68473;SDS011;55461;52.066;5.194;2022-12-29T13:25:11;15.0;;;3.4;;